sensor_id;sensor_type;location;lat;lon;timestamp;pressure;altitude;pressure_sealevel;temperature;humidity
12951;BME280;6540;50.858;7.232;2022-09-03T00:00:14;51469.25;;;-142.34;21.04
12951;BME280;6540;50.858;7.232;2022-09-03T00:08:13;51408.75;;;-142.34;20.62
12951;BME280;6540;50.858;7.232;2022-09-03T00:10:55;51499.50;;;-142.34;21.49
12951;BME280;6540;50.858;7.232;2022-09-03T00:13:37;51465.22;;;-142.34;21.04
12951;BME280;6540;50.858;7.232;2022-09-03T00:16:10;51465.22;;;-142.34;21.28
12951;BME280;6540;50.858;7.232;2022-09-03T00:18:55;51487.41;;;-142.34;21.25
12951;BME280;6540;50.858;7.232;2022-09-03T00:23:59;51479.34;;;-142.34;21.44
12951;BME280;6540;50.858;7.232;2022-09-03T00:26:32;51543.88;;;-142.34;21.93
12951;BME280;6540;50.858;7.232;2022-09-03T00:29:24;51511.63;;;-142.34;21.74
12951;BME280;6540;50.858;7.232;2022-09-03T00:31:51;51535.81;;;-142.34;21.84
12951;BME280;6540;50.858;7.232;2022-09-03T00:34:37;51535.81;;;-142.34;21.76
12951;BME280;6540;50.858;7.232;2022-09-03T00:37:09;51489.44;;;-142.34;21.01
12951;BME280;6540;50.858;7.232;2022-09-03T00:39:36;51495.47;;;-142.34;21.06
12951;BME280;6540;50.858;7.232;2022-09-03T00:42:23;51499.50;;;-142.34;21.80
12951;BME280;6540;50.858;7.232;2022-09-03T00:45:16;51479.34;;;-142.34;21.16
12951;BME280;6540;50.858;7.232;2022-09-03T00:48:44;51535.81;;;-142.34;21.62
12951;BME280;6540;50.858;7.232;2022-09-03T00:51:01;51457.16;;;-142.34;20.54
12951;BME280;6540;50.858;7.232;2022-09-03T01:01:17;51501.53;;;-142.34;21.33
12951;BME280;6540;50.858;7.232;2022-09-03T01:04:10;51422.88;;;-142.34;20.96
12951;BME280;6540;50.858;7.232;2022-09-03T01:09:44;51432.94;;;-142.34;21.28
12951;BME280;6540;50.858;7.232;2022-09-03T01:12:25;51503.53;;;-142.34;21.67
12951;BME280;6540;50.858;7.232;2022-09-03T01:15:09;51491.44;;;-142.34;21.40
12951;BME280;6540;50.858;7.232;2022-09-03T01:17:49;51551.97;;;-142.34;22.83
12951;BME280;6540;50.858;7.232;2022-09-03T01:25:59;51503.53;;;-142.34;21.40
12951;BME280;6540;50.858;7.232;2022-09-03T01:47:30;51469.25;;;-142.34;21.94
12951;BME280;6540;50.858;7.232;2022-09-03T01:50:12;51539.84;;;-142.34;22.45
12951;BME280;6540;50.858;7.232;2022-09-03T01:52:45;51527.75;;;-142.34;21.95
12951;BME280;6540;50.858;7.232;2022-09-03T01:58:29;51515.66;;;-142.34;22.25
12951;BME280;6540;50.858;7.232;2022-09-03T02:01:02;51507.59;;;-142.34;22.07
12951;BME280;6540;50.858;7.232;2022-09-03T02:03:38;51562.03;;;-142.34;22.92
12951;BME280;6540;50.858;7.232;2022-09-03T02:06:06;51541.88;;;-142.34;22.61
12951;BME280;6540;50.858;7.232;2022-09-03T02:08:32;51517.66;;;-142.34;22.70
12951;BME280;6540;50.858;7.232;2022-09-03T02:10:57;51525.75;;;-142.34;22.50
12951;BME280;6540;50.858;7.232;2022-09-03T02:16:15;51535.81;;;-142.34;22.40
12951;BME280;6540;50.858;7.232;2022-09-03T02:18:54;51527.75;;;-142.34;22.86
12951;BME280;6540;50.858;7.232;2022-09-03T02:21:22;51586.25;;;-142.34;23.82
12951;BME280;6540;50.858;7.232;2022-09-03T02:23:49;51551.97;;;-142.34;22.69
12951;BME280;6540;50.858;7.232;2022-09-03T02:26:18;51564.06;;;-142.34;23.04
12951;BME280;6540;50.858;7.232;2022-09-03T02:28:45;51511.63;;;-142.34;22.09
12951;BME280;6540;50.858;7.232;2022-09-03T02:31:11;51521.69;;;-142.34;21.59
12951;BME280;6540;50.858;7.232;2022-09-03T02:33:38;51475.31;;;-142.34;21.47
12951;BME280;6540;50.858;7.232;2022-09-03T02:36:07;51463.22;;;-142.34;21.64
12951;BME280;6540;50.858;7.232;2022-09-03T02:38:33;51527.75;;;-142.34;22.14
12951;BME280;6540;50.858;7.232;2022-09-03T02:40:58;51549.94;;;-142.34;22.64
12951;BME280;6540;50.858;7.232;2022-09-03T02:43:35;51515.66;;;-142.34;22.38
12951;BME280;6540;50.858;7.232;2022-09-03T02:46:08;51517.66;;;-142.34;22.10
12951;BME280;6540;50.858;7.232;2022-09-03T02:48:34;51539.84;;;-142.34;22.15
12951;BME280;6540;50.858;7.232;2022-09-03T02:51:00;51499.50;;;-142.34;21.54
12951;BME280;6540;50.858;7.232;2022-09-03T02:53:25;51475.31;;;-142.34;21.39
12951;BME280;6540;50.858;7.232;2022-09-03T02:55:59;51507.59;;;-142.34;21.66
12951;BME280;6540;50.858;7.232;2022-09-03T02:58:25;51485.41;;;-142.34;22.15
12951;BME280;6540;50.858;7.232;2022-09-03T03:00:51;51491.44;;;-142.34;21.54
12951;BME280;6540;50.858;7.232;2022-09-03T03:03:16;51447.06;;;-142.34;21.20
12951;BME280;6540;50.858;7.232;2022-09-03T03:08:07;51523.72;;;-142.34;22.19
12951;BME280;6540;50.858;7.232;2022-09-03T03:10:33;51535.81;;;-142.34;22.08
12951;BME280;6540;50.858;7.232;2022-09-03T03:12:59;51473.28;;;-142.34;21.50
12951;BME280;6540;50.858;7.232;2022-09-03T03:15:25;51523.72;;;-142.34;21.82
12951;BME280;6540;50.858;7.232;2022-09-03T03:17:55;51483.38;;;-142.34;21.36
12951;BME280;6540;50.858;7.232;2022-09-03T03:20:20;51463.22;;;-142.34;21.38
12951;BME280;6540;50.858;7.232;2022-09-03T03:22:45;51503.53;;;-142.34;21.77
12951;BME280;6540;50.858;7.232;2022-09-03T03:25:11;51495.47;;;-142.34;21.54
12951;BME280;6540;50.858;7.232;2022-09-03T03:27:36;51491.44;;;-142.34;21.33
12951;BME280;6540;50.858;7.232;2022-09-03T03:30:07;51424.88;;;-142.34;20.90
12951;BME280;6540;50.858;7.232;2022-09-03T03:32:37;51414.78;;;-142.34;20.98
12951;BME280;6540;50.858;7.232;2022-09-03T03:35:03;51418.84;;;-142.34;21.15
12951;BME280;6540;50.858;7.232;2022-09-03T03:37:30;51422.88;;;-142.34;21.15
12951;BME280;6540;50.858;7.232;2022-09-03T03:39:55;51434.97;;;-142.34;20.53
12951;BME280;6540;50.858;7.232;2022-09-03T03:42:20;51495.47;;;-142.34;21.77
12951;BME280;6540;50.858;7.232;2022-09-03T03:44:46;51443.03;;;-142.34;20.72
12951;BME280;6540;50.858;7.232;2022-09-03T03:47:11;51422.88;;;-142.34;21.20
12951;BME280;6540;50.858;7.232;2022-09-03T03:49:37;51463.22;;;-142.34;21.01
12951;BME280;6540;50.858;7.232;2022-09-03T03:52:03;51455.13;;;-142.34;21.12
12951;BME280;6540;50.858;7.232;2022-09-03T03:54:29;51443.03;;;-142.34;21.17
12951;BME280;6540;50.858;7.232;2022-09-03T03:56:55;51443.03;;;-142.34;21.10
12951;BME280;6540;50.858;7.232;2022-09-03T03:59:20;51441.03;;;-142.34;21.06
12951;BME280;6540;50.858;7.232;2022-09-03T04:01:45;51475.31;;;-142.34;21.59
12951;BME280;6540;50.858;7.232;2022-09-03T04:04:12;51414.78;;;-142.34;21.40
12951;BME280;6540;50.858;7.232;2022-09-03T04:06:38;51430.94;;;-142.34;21.36
12951;BME280;6540;50.858;7.232;2022-09-03T04:09:03;51527.75;;;-142.34;21.57
12951;BME280;6540;50.858;7.232;2022-09-03T04:11:29;51531.78;;;-142.34;22.11
12951;BME280;6540;50.858;7.232;2022-09-03T04:13:54;51471.28;;;-142.34;21.51
12951;BME280;6540;50.858;7.232;2022-09-03T04:16:26;51436.97;;;-142.34;20.96
12951;BME280;6540;50.858;7.232;2022-09-03T04:18:55;51412.78;;;-142.34;21.20
12951;BME280;6540;50.858;7.232;2022-09-03T04:21:29;51414.78;;;-142.34;21.43
12951;BME280;6540;50.858;7.232;2022-09-03T04:23:55;51414.78;;;-142.34;21.31
12951;BME280;6540;50.858;7.232;2022-09-03T04:26:26;51430.94;;;-142.34;21.12
12951;BME280;6540;50.858;7.232;2022-09-03T04:28:55;51457.16;;;-142.34;21.54
12951;BME280;6540;50.858;7.232;2022-09-03T04:31:21;51428.91;;;-142.34;21.40
12951;BME280;6540;50.858;7.232;2022-09-03T04:33:46;51414.78;;;-142.34;21.32
12951;BME280;6540;50.858;7.232;2022-09-03T04:36:20;51388.56;;;-142.34;21.15
12951;BME280;6540;50.858;7.232;2022-09-03T04:38:49;51418.84;;;-142.34;21.03
12951;BME280;6540;50.858;7.232;2022-09-03T04:41:20;51418.84;;;-142.34;21.01
12951;BME280;6540;50.858;7.232;2022-09-03T04:43:46;51410.75;;;-142.34;21.33
12951;BME280;6540;50.858;7.232;2022-09-03T04:46:13;51439.00;;;-142.34;21.37
12951;BME280;6540;50.858;7.232;2022-09-03T04:48:39;51507.59;;;-142.34;21.66
12951;BME280;6540;50.858;7.232;2022-09-03T04:51:06;51515.66;;;-142.34;22.85
12951;BME280;6540;50.858;7.232;2022-09-03T04:53:33;51513.63;;;-142.34;22.58
12951;BME280;6540;50.858;7.232;2022-09-03T04:55:59;51499.50;;;-142.34;22.36
12951;BME280;6540;50.858;7.232;2022-09-03T04:58:25;51537.84;;;-142.34;23.34
12951;BME280;6540;50.858;7.232;2022-09-03T05:00:50;51507.59;;;-142.34;22.67
12951;BME280;6540;50.858;7.232;2022-09-03T05:03:16;51519.69;;;-142.34;22.90
12951;BME280;6540;50.858;7.232;2022-09-03T05:05:41;51523.72;;;-142.34;22.40
12951;BME280;6540;50.858;7.232;2022-09-03T05:08:07;51533.81;;;-142.34;22.60
12951;BME280;6540;50.858;7.232;2022-09-03T05:10:32;51511.63;;;-142.34;22.42
12951;BME280;6540;50.858;7.232;2022-09-03T05:13:04;51495.47;;;-142.34;22.38
12951;BME280;6540;50.858;7.232;2022-09-03T05:15:30;51483.38;;;-142.34;21.98
12951;BME280;6540;50.858;7.232;2022-09-03T05:17:58;51434.97;;;-142.34;21.75
12951;BME280;6540;50.858;7.232;2022-09-03T05:20:24;51477.31;;;-142.34;22.18
12951;BME280;6540;50.858;7.232;2022-09-03T05:22:50;51443.03;;;-142.34;21.84
12951;BME280;6540;50.858;7.232;2022-09-03T05:25:16;51471.28;;;-142.34;21.89
12951;BME280;6540;50.858;7.232;2022-09-03T05:27:41;51418.84;;;-142.34;21.77
12951;BME280;6540;50.858;7.232;2022-09-03T05:30:07;51410.75;;;-142.34;21.45
12951;BME280;6540;50.858;7.232;2022-09-03T05:32:33;51414.78;;;-142.34;21.61
12951;BME280;6540;50.858;7.232;2022-09-03T05:34:58;51475.31;;;-142.34;21.98
12951;BME280;6540;50.858;7.232;2022-09-03T05:37:24;51475.31;;;-142.34;22.30
12951;BME280;6540;50.858;7.232;2022-09-03T05:39:49;51513.63;;;-142.34;22.08
12951;BME280;6540;50.858;7.232;2022-09-03T05:42:15;51473.28;;;-142.34;21.86
12951;BME280;6540;50.858;7.232;2022-09-03T05:44:40;51495.47;;;-142.34;22.33
12951;BME280;6540;50.858;7.232;2022-09-03T05:47:06;51491.44;;;-142.34;22.23
12951;BME280;6540;50.858;7.232;2022-09-03T05:49:31;51457.16;;;-142.34;21.56
12951;BME280;6540;50.858;7.232;2022-09-03T05:51:56;51432.94;;;-142.34;22.13
12951;BME280;6540;50.858;7.232;2022-09-03T05:54:22;51461.19;;;-142.34;22.06
12951;BME280;6540;50.858;7.232;2022-09-03T05:56:47;51477.31;;;-142.34;22.37
12951;BME280;6540;50.858;7.232;2022-09-03T05:59:13;51503.53;;;-142.34;22.50
12951;BME280;6540;50.858;7.232;2022-09-03T06:01:43;51487.41;;;-142.34;22.49
12951;BME280;6540;50.858;7.232;2022-09-03T06:04:13;51509.59;;;-142.34;22.44
12951;BME280;6540;50.858;7.232;2022-09-03T06:06:44;51523.72;;;-142.34;23.13
12951;BME280;6540;50.858;7.232;2022-09-03T06:09:15;51475.31;;;-142.34;22.01
12951;BME280;6540;50.858;7.232;2022-09-03T06:11:42;51432.94;;;-142.34;21.45
12951;BME280;6540;50.858;7.232;2022-09-03T06:14:11;51503.53;;;-142.34;22.55
12951;BME280;6540;50.858;7.232;2022-09-03T06:16:39;51471.28;;;-142.34;21.73
12951;BME280;6540;50.858;7.232;2022-09-03T06:19:06;51511.63;;;-142.34;22.45
12951;BME280;6540;50.858;7.232;2022-09-03T06:21:34;51507.59;;;-142.34;22.01
12951;BME280;6540;50.858;7.232;2022-09-03T06:24:00;51441.03;;;-142.34;21.84
12951;BME280;6540;50.858;7.232;2022-09-03T06:26:26;51439.00;;;-142.34;21.68
12951;BME280;6540;50.858;7.232;2022-09-03T06:28:52;51491.44;;;-142.34;22.34
12951;BME280;6540;50.858;7.232;2022-09-03T06:31:19;51439.00;;;-142.34;21.77
12951;BME280;6540;50.858;7.232;2022-09-03T06:33:45;51457.16;;;-142.34;21.96
12951;BME280;6540;50.858;7.232;2022-09-03T06:36:16;51449.09;;;-142.34;21.92
12951;BME280;6540;50.858;7.232;2022-09-03T06:38:43;51422.88;;;-142.34;21.70
12951;BME280;6540;50.858;7.232;2022-09-03T06:41:14;51390.59;;;-142.34;20.98
12951;BME280;6540;50.858;7.232;2022-09-03T06:43:51;51489.44;;;-142.34;22.01
12951;BME280;6540;50.858;7.232;2022-09-03T06:46:19;51487.41;;;-142.34;22.18
12951;BME280;6540;50.858;7.232;2022-09-03T06:48:45;51447.06;;;-142.34;21.21
12951;BME280;6540;50.858;7.232;2022-09-03T06:51:17;51426.91;;;-142.34;21.03
12951;BME280;6540;50.858;7.232;2022-09-03T06:53:45;51439.00;;;-142.34;21.79
12951;BME280;6540;50.858;7.232;2022-09-03T06:56:13;51354.28;;;-142.34;20.67
12951;BME280;6540;50.858;7.232;2022-09-03T06:58:41;51366.38;;;-142.34;20.79
12951;BME280;6540;50.858;7.232;2022-09-03T07:01:09;51378.50;;;-142.34;21.13
12951;BME280;6540;50.858;7.232;2022-09-03T07:03:36;51350.25;;;-142.34;20.59
12951;BME280;6540;50.858;7.232;2022-09-03T07:06:03;51338.16;;;-142.34;20.57
12951;BME280;6540;50.858;7.232;2022-09-03T07:08:29;51334.13;;;-142.34;20.67
12951;BME280;6540;50.858;7.232;2022-09-03T07:11:03;51414.78;;;-142.34;21.23
12951;BME280;6540;50.858;7.232;2022-09-03T07:13:31;51515.66;;;-142.34;21.79
12951;BME280;6540;50.858;7.232;2022-09-03T07:16:02;51402.69;;;-142.34;21.17
12951;BME280;6540;50.858;7.232;2022-09-03T07:18:29;51299.81;;;-142.34;20.57
12951;BME280;6540;50.858;7.232;2022-09-03T07:21:04;51317.97;;;-142.34;20.33
12951;BME280;6540;50.858;7.232;2022-09-03T07:23:31;51360.34;;;-142.34;20.65
12951;BME280;6540;50.858;7.232;2022-09-03T07:25:59;51368.41;;;-142.34;21.18
12951;BME280;6540;50.858;7.232;2022-09-03T07:28:26;51414.78;;;-142.34;21.35
12951;BME280;6540;50.858;7.232;2022-09-03T07:30:53;51402.69;;;-142.34;21.46
12951;BME280;6540;50.858;7.232;2022-09-03T07:33:19;51418.84;;;-142.34;21.54
12951;BME280;6540;50.858;7.232;2022-09-03T07:35:45;51394.63;;;-142.34;21.21
12951;BME280;6540;50.858;7.232;2022-09-03T07:38:16;51358.31;;;-142.34;20.42
12951;BME280;6540;50.858;7.232;2022-09-03T07:40:41;51346.22;;;-142.34;20.65
12951;BME280;6540;50.858;7.232;2022-09-03T07:43:07;51414.78;;;-142.34;21.31
12951;BME280;6540;50.858;7.232;2022-09-03T07:45:33;51324.03;;;-142.34;20.37
12951;BME280;6540;50.858;7.232;2022-09-03T07:47:59;51311.94;;;-142.34;20.37
12951;BME280;6540;50.858;7.232;2022-09-03T07:50:25;51340.16;;;-142.34;20.32
12951;BME280;6540;50.858;7.232;2022-09-03T07:52:57;51410.75;;;-142.34;21.61
12951;BME280;6540;50.858;7.232;2022-09-03T07:55:23;51328.06;;;-142.34;20.49
12951;BME280;6540;50.858;7.232;2022-09-03T07:57:49;51259.47;;;-142.34;20.24
12951;BME280;6540;50.858;7.232;2022-09-03T08:00:14;51261.50;;;-142.34;19.93
12951;BME280;6540;50.858;7.232;2022-09-03T08:02:41;51265.53;;;-142.34;20.00
12951;BME280;6540;50.858;7.232;2022-09-03T08:05:07;51372.44;;;-142.34;20.57
12951;BME280;6540;50.858;7.232;2022-09-03T08:07:32;51418.84;;;-142.34;21.61
12951;BME280;6540;50.858;7.232;2022-09-03T08:09:57;51352.28;;;-142.34;20.96
12951;BME280;6540;50.858;7.232;2022-09-03T08:12:23;51428.91;;;-142.34;21.42
12951;BME280;6540;50.858;7.232;2022-09-03T08:14:48;51320.00;;;-142.34;20.50
12951;BME280;6540;50.858;7.232;2022-09-03T08:17:14;51358.31;;;-142.34;21.01
12951;BME280;6540;50.858;7.232;2022-09-03T08:19:39;51354.28;;;-142.34;20.53
12951;BME280;6540;50.858;7.232;2022-09-03T08:22:06;51354.28;;;-142.34;21.30
12951;BME280;6540;50.858;7.232;2022-09-03T08:24:32;51315.97;;;-142.34;20.44
12951;BME280;6540;50.858;7.232;2022-09-03T08:26:59;51354.28;;;-142.34;20.64
12951;BME280;6540;50.858;7.232;2022-09-03T08:29:24;51338.16;;;-142.34;21.21
12951;BME280;6540;50.858;7.232;2022-09-03T08:31:51;51285.72;;;-142.34;21.28
12951;BME280;6540;50.858;7.232;2022-09-03T08:34:16;51342.19;;;-142.34;21.47
12951;BME280;6540;50.858;7.232;2022-09-03T08:36:42;51301.84;;;-142.34;21.14
12951;BME280;6540;50.858;7.232;2022-09-03T08:39:09;51338.16;;;-142.34;21.58
12951;BME280;6540;50.858;7.232;2022-09-03T08:41:51;51277.63;;;-142.34;20.84
12951;BME280;6540;50.858;7.232;2022-09-03T08:47:39;51301.84;;;-142.34;21.62
12951;BME280;6540;50.858;7.232;2022-09-03T08:53:08;51313.94;;;-142.34;21.59
12951;BME280;6540;50.858;7.232;2022-09-03T08:58:15;51235.28;;;-142.34;20.73
12951;BME280;6540;50.858;7.232;2022-09-03T09:00:57;51261.50;;;-142.34;21.58
12951;BME280;6540;50.858;7.232;2022-09-03T09:03:48;51257.47;;;-142.34;21.32
12951;BME280;6540;50.858;7.232;2022-09-03T09:09:21;51336.13;;;-142.34;22.21
12951;BME280;6540;50.858;7.232;2022-09-03T09:15:09;51322.00;;;-142.34;22.43
12951;BME280;6540;50.858;7.232;2022-09-03T09:20:53;51374.44;;;-142.34;22.26
12951;BME280;6540;50.858;7.232;2022-09-03T09:23:29;51386.56;;;-142.34;23.12
12951;BME280;6540;50.858;7.232;2022-09-03T09:25:56;51285.72;;;-142.34;22.21
12951;BME280;6540;50.858;7.232;2022-09-03T09:28:29;51293.78;;;-142.34;22.19
12951;BME280;6540;50.858;7.232;2022-09-03T09:30:56;51269.56;;;-142.34;21.79
12951;BME280;6540;50.858;7.232;2022-09-03T09:33:22;51326.03;;;-142.34;22.36
12951;BME280;6540;50.858;7.232;2022-09-03T09:35:48;51285.72;;;-142.34;21.86
12951;BME280;6540;50.858;7.232;2022-09-03T09:38:14;51313.94;;;-142.34;21.28
12951;BME280;6540;50.858;7.232;2022-09-03T09:40:42;51305.88;;;-142.34;22.35
12951;BME280;6540;50.858;7.232;2022-09-03T09:45:37;51269.56;;;-142.34;21.23
12951;BME280;6540;50.858;7.232;2022-09-03T09:48:09;51219.16;;;-142.34;20.92
12951;BME280;6540;50.858;7.232;2022-09-03T09:50:37;51253.44;;;-142.34;20.93
12951;BME280;6540;50.858;7.232;2022-09-03T09:53:06;51261.50;;;-142.34;21.09
12951;BME280;6540;50.858;7.232;2022-09-03T09:55:50;51257.47;;;-142.34;21.19
12951;BME280;6540;50.858;7.232;2022-09-03T09:58:18;51313.94;;;-142.34;21.87
12951;BME280;6540;50.858;7.232;2022-09-03T10:01:04;51263.53;;;-142.34;21.13
12951;BME280;6540;50.858;7.232;2022-09-03T10:03:47;51243.34;;;-142.34;20.97
12951;BME280;6540;50.858;7.232;2022-09-03T10:06:14;51309.91;;;-142.34;21.90
12951;BME280;6540;50.858;7.232;2022-09-03T10:09:13;51289.75;;;-142.34;21.40
12951;BME280;6540;50.858;7.232;2022-09-03T10:11:43;51285.72;;;-142.34;21.74
12951;BME280;6540;50.858;7.232;2022-09-03T10:14:19;51168.72;;;-142.34;20.50
12951;BME280;6540;50.858;7.232;2022-09-03T10:16:49;51160.66;;;-142.34;20.35
12951;BME280;6540;50.858;7.232;2022-09-03T10:19:23;51225.19;;;-142.34;20.76
12951;BME280;6540;50.858;7.232;2022-09-03T10:22:09;51293.78;;;-142.34;21.77
12951;BME280;6540;50.858;7.232;2022-09-03T10:24:50;51307.88;;;-142.34;21.94
12951;BME280;6540;50.858;7.232;2022-09-03T10:27:17;51295.78;;;-142.34;21.97
12951;BME280;6540;50.858;7.232;2022-09-03T10:29:44;51309.91;;;-142.34;21.60
12951;BME280;6540;50.858;7.232;2022-09-03T10:32:36;51227.22;;;-142.34;21.35
12951;BME280;6540;50.858;7.232;2022-09-03T10:37:48;51273.59;;;-142.34;21.42
12951;BME280;6540;50.858;7.232;2022-09-03T10:50:52;51305.88;;;-142.34;21.47
12951;BME280;6540;50.858;7.232;2022-09-03T10:56:15;51253.44;;;-142.34;21.27
12951;BME280;6540;50.858;7.232;2022-09-03T10:58:58;51180.81;;;-142.34;20.86
12951;BME280;6540;50.858;7.232;2022-09-03T11:07:18;51279.66;;;-142.34;21.17
12951;BME280;6540;50.858;7.232;2022-09-03T11:13:14;51235.28;;;-142.34;21.28
12951;BME280;6540;50.858;7.232;2022-09-03T11:15:25;51305.88;;;-142.34;21.98
12951;BME280;6540;50.858;7.232;2022-09-03T11:18:07;51241.34;;;-142.34;20.88
12951;BME280;6540;50.858;7.232;2022-09-03T11:20:39;51213.09;;;-142.34;20.74
12951;BME280;6540;50.858;7.232;2022-09-03T11:23:08;51253.44;;;-142.34;20.98
12951;BME280;6540;50.858;7.232;2022-09-03T11:25:42;51166.69;;;-142.34;20.00
12951;BME280;6540;50.858;7.232;2022-09-03T11:34:00;51285.72;;;-142.34;21.46
12951;BME280;6540;50.858;7.232;2022-09-03T11:36:35;51186.88;;;-142.34;20.95
12951;BME280;6540;50.858;7.232;2022-09-03T11:42:04;51269.56;;;-142.34;21.06
12951;BME280;6540;50.858;7.232;2022-09-03T11:44:37;51257.47;;;-142.34;21.41
12951;BME280;6540;50.858;7.232;2022-09-03T11:47:19;51188.88;;;-142.34;20.67
12951;BME280;6540;50.858;7.232;2022-09-03T11:49:50;51160.66;;;-142.34;20.76
12951;BME280;6540;50.858;7.232;2022-09-03T11:52:29;51309.91;;;-142.34;21.64
12951;BME280;6540;50.858;7.232;2022-09-03T11:55:05;51239.31;;;-142.34;20.88
12951;BME280;6540;50.858;7.232;2022-09-03T11:57:32;51261.50;;;-142.34;21.02
12951;BME280;6540;50.858;7.232;2022-09-03T12:00:12;51194.94;;;-142.34;20.49
12951;BME280;6540;50.858;7.232;2022-09-03T12:02:47;51336.13;;;-142.34;22.07
12951;BME280;6540;50.858;7.232;2022-09-03T12:10:52;51261.50;;;-142.34;21.50
12951;BME280;6540;50.858;7.232;2022-09-03T12:18:45;51317.97;;;-142.34;22.30
12951;BME280;6540;50.858;7.232;2022-09-03T12:21:12;51188.88;;;-142.34;21.27
12951;BME280;6540;50.858;7.232;2022-09-03T12:26:26;51217.13;;;-142.34;21.28
12951;BME280;6540;50.858;7.232;2022-09-03T12:28:54;51188.88;;;-142.34;20.96
12951;BME280;6540;50.858;7.232;2022-09-03T12:31:23;51269.56;;;-142.34;21.54
12951;BME280;6540;50.858;7.232;2022-09-03T12:36:19;51241.34;;;-142.34;21.84
12951;BME280;6540;50.858;7.232;2022-09-03T12:38:45;51281.66;;;-142.34;22.64
12951;BME280;6540;50.858;7.232;2022-09-03T12:41:27;51213.09;;;-142.34;21.47
12951;BME280;6540;50.858;7.232;2022-09-03T12:43:57;51269.56;;;-142.34;22.08
12951;BME280;6540;50.858;7.232;2022-09-03T12:46:29;51213.09;;;-142.34;21.55
12951;BME280;6540;50.858;7.232;2022-09-03T12:49:04;51313.94;;;-142.34;22.65
12951;BME280;6540;50.858;7.232;2022-09-03T12:51:38;51344.19;;;-142.34;22.67
12951;BME280;6540;50.858;7.232;2022-09-03T12:54:06;51229.22;;;-142.34;21.93
12951;BME280;6540;50.858;7.232;2022-09-03T12:56:34;51225.19;;;-142.34;21.93
12951;BME280;6540;50.858;7.232;2022-09-03T12:59:08;51221.16;;;-142.34;21.23
12951;BME280;6540;50.858;7.232;2022-09-03T13:02:02;51124.34;;;-142.34;20.64
12951;BME280;6540;50.858;7.232;2022-09-03T13:04:32;51188.88;;;-142.34;21.19
12951;BME280;6540;50.858;7.232;2022-09-03T13:07:05;51293.78;;;-142.34;22.90
12951;BME280;6540;50.858;7.232;2022-09-03T13:09:35;51350.25;;;-142.34;23.15
12951;BME280;6540;50.858;7.232;2022-09-03T13:12:02;51253.44;;;-142.34;21.89
12951;BME280;6540;50.858;7.232;2022-09-03T13:14:46;51253.44;;;-142.34;22.17
12951;BME280;6540;50.858;7.232;2022-09-03T13:21:01;51124.34;;;-142.34;20.59
12951;BME280;6540;50.858;7.232;2022-09-03T13:23:56;51269.56;;;-142.34;22.21
12951;BME280;6540;50.858;7.232;2022-09-03T13:26:56;51082.00;;;-142.34;20.53
12951;BME280;6540;50.858;7.232;2022-09-03T13:35:23;51162.66;;;-142.34;21.23
12951;BME280;6540;50.858;7.232;2022-09-03T13:37:55;51346.22;;;-142.34;23.41
12951;BME280;6540;50.858;7.232;2022-09-03T13:40:41;51164.69;;;-142.34;21.23
12951;BME280;6540;50.858;7.232;2022-09-03T13:45:57;51172.75;;;-142.34;21.08
12951;BME280;6540;50.858;7.232;2022-09-03T13:48:31;51330.06;;;-142.34;23.09
12951;BME280;6540;50.858;7.232;2022-09-03T13:54:11;51172.75;;;-142.34;21.20
12951;BME280;6540;50.858;7.232;2022-09-03T13:59:18;51287.72;;;-142.34;22.79
12951;BME280;6540;50.858;7.232;2022-09-03T14:02:06;51293.78;;;-142.34;22.59
12951;BME280;6540;50.858;7.232;2022-09-03T14:04:57;51338.16;;;-142.34;22.84
12951;BME280;6540;50.858;7.232;2022-09-03T14:12:46;51142.50;;;-142.34;20.47
12951;BME280;6540;50.858;7.232;2022-09-03T14:15:19;51227.22;;;-142.34;21.64
12951;BME280;6540;50.858;7.232;2022-09-03T14:21:01;51219.16;;;-142.34;21.47
12951;BME280;6540;50.858;7.232;2022-09-03T14:24:00;51108.22;;;-142.34;21.09
12951;BME280;6540;50.858;7.232;2022-09-03T14:26:31;51196.97;;;-142.34;21.63
12951;BME280;6540;50.858;7.232;2022-09-03T14:29:14;51253.44;;;-142.34;22.18
12951;BME280;6540;50.858;7.232;2022-09-03T14:39:53;51088.03;;;-142.34;20.36
12951;BME280;6540;50.858;7.232;2022-09-03T14:51:02;51112.25;;;-142.34;20.52
12951;BME280;6540;50.858;7.232;2022-09-03T15:04:56;51059.81;;;-142.34;20.47
12951;BME280;6540;50.858;7.232;2022-09-03T15:07:55;51124.34;;;-142.34;20.68
12951;BME280;6540;50.858;7.232;2022-09-03T15:10:38;51138.47;;;-142.34;21.06
12951;BME280;6540;50.858;7.232;2022-09-03T15:13:30;51084.00;;;-142.34;20.06
12951;BME280;6540;50.858;7.232;2022-09-03T15:21:18;51031.56;;;-142.34;20.25
12951;BME280;6540;50.858;7.232;2022-09-03T15:36:54;51154.59;;;-142.34;21.04
12951;BME280;6540;50.858;7.232;2022-09-03T15:39:26;51144.50;;;-142.34;20.64
12951;BME280;6540;50.858;7.232;2022-09-03T15:41:56;51079.97;;;-142.34;20.12
12951;BME280;6540;50.858;7.232;2022-09-03T15:44:25;51122.34;;;-142.34;20.27
12951;BME280;6540;50.858;7.232;2022-09-03T15:46:56;51156.63;;;-142.34;21.11
12951;BME280;6540;50.858;7.232;2022-09-03T15:51:59;51114.25;;;-142.34;20.33
12951;BME280;6540;50.858;7.232;2022-09-03T15:54:48;51132.41;;;-142.34;20.44
12951;BME280;6540;50.858;7.232;2022-09-03T15:57:25;51164.69;;;-142.34;20.81
12951;BME280;6540;50.858;7.232;2022-09-03T16:00:11;51092.06;;;-142.34;20.25
12951;BME280;6540;50.858;7.232;2022-09-03T16:05:19;51130.41;;;-142.34;20.75
12951;BME280;6540;50.858;7.232;2022-09-03T16:08:18;51128.38;;;-142.34;20.71
12951;BME280;6540;50.858;7.232;2022-09-03T16:16:04;51196.97;;;-142.34;21.59
12951;BME280;6540;50.858;7.232;2022-09-03T16:21:08;51257.47;;;-142.34;22.37
12951;BME280;6540;50.858;7.232;2022-09-03T16:23:54;51221.16;;;-142.34;21.88
12951;BME280;6540;50.858;7.232;2022-09-03T16:29:11;51374.44;;;-142.34;24.60
12951;BME280;6540;50.858;7.232;2022-09-03T16:34:44;51332.09;;;-142.34;24.48
12951;BME280;6540;50.858;7.232;2022-09-03T16:42:50;51313.94;;;-142.34;23.61
12951;BME280;6540;50.858;7.232;2022-09-03T16:50:50;51346.22;;;-142.34;24.51
12951;BME280;6540;50.858;7.232;2022-09-03T16:59:24;51241.34;;;-142.34;23.08
12951;BME280;6540;50.858;7.232;2022-09-03T17:05:00;51247.38;;;-142.34;23.19